createdAt,value
2022-12-08T00:02:44.351Z,98216.53
2022-12-08T00:08:24.805Z,98219.78
2022-12-08T00:13:46.664Z,98210.22
2022-12-08T00:19:08.352Z,98212.19
2022-12-08T00:24:32.719Z,98217.25
2022-12-08T00:29:54.406Z,98210.38
2022-12-08T00:35:16.110Z,98203.94
2022-12-08T00:40:37.826Z,98201.47
2022-12-08T00:45:59.585Z,98191.50
2022-12-08T00:51:21.340Z,98192.63
2022-12-08T00:56:43.051Z,98188.00
2022-12-08T01:02:04.736Z,98187.28
2022-12-08T01:07:26.440Z,98182.84
2022-12-08T01:12:48.160Z,98181.53
2022-12-08T01:18:09.852Z,98190.88
2022-12-08T01:23:31.588Z,98184.34
2022-12-08T01:28:53.313Z,98183.91
2022-12-08T01:34:15.167Z,98192.91
2022-12-08T01:39:36.872Z,98192.22
2022-12-08T01:45:02.668Z,98190.72
2022-12-08T01:50:24.970Z,98189.94
2022-12-08T01:56:02.825Z,98181.22
2022-12-08T02:01:24.619Z,98176.06
2022-12-08T02:06:47.629Z,98170.41
2022-12-08T02:12:10.197Z,98157.25
2022-12-08T02:18:04.639Z,98158.84
2022-12-08T02:24:27.765Z,98154.09
2022-12-08T02:30:21.957Z,98146.97
2022-12-08T02:36:12.947Z,98134.19
2022-12-08T02:41:56.227Z,98123.47
2022-12-08T02:47:20.332Z,98127.31
2022-12-08T02:52:44.698Z,98124.81
2022-12-08T02:58:37.476Z,98131.25
2022-12-08T03:04:25.540Z,98134.75
2022-12-08T03:09:56.331Z,98123.66
2022-12-08T03:15:20.330Z,98122.25
2022-12-08T03:20:44.187Z,98113.28
2022-12-08T03:26:13.321Z,98119.00
2022-12-08T03:31:47.519Z,98100.97
2022-12-08T03:37:09.388Z,98097.59
2022-12-08T03:42:31.084Z,98093.50
2022-12-08T03:47:52.789Z,98095.34
2022-12-08T03:53:14.597Z,98080.66
2022-12-08T03:58:37.662Z,98084.34
2022-12-08T04:03:59.513Z,98079.41
2022-12-08T04:09:21.266Z,98076.72
2022-12-08T04:14:43.240Z,98074.25
2022-12-08T04:20:05.949Z,98073.22
2022-12-08T04:25:27.865Z,98066.25
2022-12-08T04:30:49.952Z,98060.41
2022-12-08T04:36:11.848Z,98061.91
2022-12-08T04:41:33.612Z,98058.94
2022-12-08T04:46:55.343Z,98062.22
2022-12-08T04:52:17.107Z,98059.06
2022-12-08T04:57:38.784Z,98054.31
2022-12-08T05:03:00.577Z,98050.28
2022-12-08T05:08:22.471Z,98040.34
2022-12-08T05:13:44.192Z,98037.72
2022-12-08T05:19:05.882Z,98035.13
2022-12-08T05:24:27.586Z,98036.84
2022-12-08T05:29:50.150Z,98034.25
2022-12-08T05:35:11.941Z,98030.16
2022-12-08T05:40:33.714Z,98041.69
2022-12-08T05:45:55.504Z,98041.69
2022-12-08T05:51:22.340Z,98047.56
2022-12-08T05:56:44.159Z,98041.63
2022-12-08T06:02:05.995Z,98035.44
2022-12-08T06:07:27.781Z,98036.16
2022-12-08T06:12:49.439Z,98032.00
2022-12-08T06:18:11.876Z,98028.69
2022-12-08T06:23:33.797Z,98027.97
2022-12-08T06:28:55.490Z,98029.56
2022-12-08T06:34:17.184Z,98034.09
2022-12-08T06:39:38.905Z,98026.38
2022-12-08T06:45:00.738Z,98030.75
2022-12-08T06:50:22.723Z,98037.53
2022-12-08T06:56:00.287Z,98041.56
2022-12-08T07:01:22.296Z,98042.09
2022-12-08T07:06:44.113Z,98040.34
2022-12-08T07:12:05.946Z,98043.03
2022-12-08T07:17:27.699Z,98051.25
2022-12-08T07:22:52.972Z,98048.53
2022-12-08T07:28:14.740Z,98038.97
2022-12-08T07:33:36.598Z,98038.63
2022-12-08T07:38:58.411Z,98048.88
2022-12-08T07:44:20.064Z,98044.19
2022-12-08T07:49:41.780Z,98048.59
2022-12-08T07:55:03.589Z,98045.50
2022-12-08T08:00:25.615Z,98044.25
2022-12-08T08:05:49.188Z,98037.13
2022-12-08T08:11:18.908Z,98036.00
2022-12-08T08:16:46.753Z,98029.66
2022-12-08T08:22:08.542Z,98023.81
2022-12-08T08:27:30.290Z,98024.41
2022-12-08T08:32:52.368Z,98029.78
2022-12-08T08:38:14.324Z,98031.09
2022-12-08T08:43:38.675Z,98030.03
2022-12-08T08:49:00.897Z,98026.53
2022-12-08T08:54:22.747Z,98030.94
2022-12-08T08:59:44.435Z,98025.34
2022-12-08T09:05:06.806Z,98024.13
2022-12-08T09:10:28.614Z,98016.88
2022-12-08T09:15:50.300Z,98008.06
2022-12-08T09:21:16.377Z,97997.66
2022-12-08T09:26:38.145Z,97997.34
2022-12-08T09:31:59.837Z,97999.47
2022-12-08T09:37:21.617Z,98005.97
2022-12-08T09:42:55.999Z,97997.88
2022-12-08T09:48:24.135Z,97991.19
2022-12-08T09:53:54.815Z,97978.59
2022-12-08T09:59:24.842Z,97983.25
2022-12-08T10:04:46.688Z,97982.78
2022-12-08T10:10:33.387Z,97971.34
2022-12-08T10:16:11.083Z,97961.94
2022-12-08T10:21:34.702Z,97955.66
2022-12-08T10:26:57.820Z,97951.16
2022-12-08T10:32:23.029Z,97954.84
2022-12-08T10:38:01.698Z,97945.19
2022-12-08T10:43:27.584Z,97947.31
2022-12-08T10:48:54.537Z,97942.28
2022-12-08T10:54:33.984Z,97925.06
2022-12-08T10:59:58.223Z,97918.88
2022-12-08T11:05:22.448Z,97915.34
2022-12-08T11:10:45.302Z,97901.22
2022-12-08T11:16:07.796Z,97882.88
2022-12-08T11:21:37.304Z,97873.66
2022-12-08T11:27:04.411Z,97872.06
2022-12-08T11:32:26.423Z,97867.25
2022-12-08T11:37:48.551Z,97850.34
2022-12-08T11:43:19.421Z,97854.88
2022-12-08T11:48:45.569Z,97848.66
2022-12-08T11:54:24.446Z,97838.22
2022-12-08T11:59:50.971Z,97845.09
2022-12-08T12:06:09.114Z,97842.78
2022-12-08T12:12:15.787Z,97838.31
2022-12-08T12:17:42.857Z,97833.03
2022-12-08T12:23:27.994Z,97825.88
2022-12-08T12:29:15.772Z,97827.41
2022-12-08T12:34:50.869Z,97831.50
2022-12-08T12:40:25.849Z,97815.44
2022-12-08T12:45:47.677Z,97808.88
2022-12-08T12:51:35.205Z,97807.66
2022-12-08T12:57:18.721Z,97797.53
2022-12-08T13:02:48.884Z,97787.44
2022-12-08T13:08:24.264Z,97792.63
2022-12-08T13:13:57.541Z,97790.13
2022-12-08T13:19:21.444Z,97792.78
2022-12-08T13:24:43.824Z,97798.91
2022-12-08T13:30:48.048Z,97792.25
2022-12-08T13:36:22.550Z,97787.16
2022-12-08T13:41:51.968Z,97794.66
2022-12-08T13:47:33.980Z,97785.78
2022-12-08T13:59:19.231Z,97779.06
2022-12-08T14:05:16.758Z,97777.16
2022-12-08T14:10:30.349Z,97780.88
2022-12-08T14:15:52.090Z,97788.59
2022-12-08T14:21:21.789Z,97790.41
2022-12-08T14:26:47.095Z,97775.75
2022-12-08T14:32:42.333Z,97785.56
2022-12-08T14:38:13.970Z,97783.69
2022-12-08T14:43:36.001Z,97791.09
2022-12-08T14:48:58.680Z,97785.84
2022-12-08T14:54:20.435Z,97789.09
2022-12-08T14:59:43.377Z,97784.34
2022-12-08T15:05:12.360Z,97791.22
2022-12-08T15:10:37.934Z,97794.97
2022-12-08T15:15:59.772Z,97782.41
2022-12-08T15:21:35.556Z,97782.53
2022-12-08T15:26:57.386Z,97789.06
2022-12-08T15:32:21.578Z,97787.25
2022-12-08T15:37:44.616Z,97791.25
2022-12-08T15:43:10.801Z,97778.22
2022-12-08T15:48:32.512Z,97781.81
2022-12-08T15:53:54.265Z,97777.56
2022-12-08T15:59:22.416Z,97775.00
2022-12-08T16:10:35.380Z,97764.59
2022-12-08T16:16:11.516Z,97764.53
2022-12-08T16:22:12.145Z,97763.16
2022-12-08T16:28:00.109Z,97758.53
2022-12-08T16:33:02.937Z,97750.44
2022-12-08T16:38:24.726Z,97747.34
2022-12-08T16:43:46.452Z,97747.50
2022-12-08T16:49:09.242Z,97746.78
2022-12-08T16:54:31.285Z,97736.38
2022-12-08T16:59:53.327Z,97751.13
2022-12-08T17:05:16.950Z,97744.59
2022-12-08T17:10:39.937Z,97751.75
2022-12-08T17:16:02.970Z,97740.22
2022-12-08T17:21:24.792Z,97740.50
2022-12-08T17:26:46.834Z,97740.38
2022-12-08T17:32:08.663Z,97749.31
2022-12-08T17:37:30.391Z,97757.22
2022-12-08T17:42:52.154Z,97757.44
2022-12-08T17:48:14.936Z,97751.06
2022-12-08T17:53:37.599Z,97747.50
2022-12-08T17:59:03.317Z,97753.50
2022-12-08T18:04:26.466Z,97763.22
2022-12-08T18:09:48.143Z,97757.28
2022-12-08T18:15:15.649Z,97765.25
2022-12-08T18:20:37.563Z,97756.09
2022-12-08T18:25:59.411Z,97765.41
2022-12-08T18:31:22.617Z,97750.78
2022-12-08T18:36:45.003Z,97747.63
2022-12-08T18:42:25.057Z,97752.69
2022-12-08T18:47:47.169Z,97741.41
2022-12-08T18:53:08.865Z,97744.63
2022-12-08T18:58:30.550Z,97746.94
2022-12-08T19:04:19.979Z,97749.78
2022-12-08T19:09:33.977Z,97728.59
2022-12-08T19:14:56.676Z,97728.03
2022-12-08T19:20:18.460Z,97735.47
2022-12-08T19:25:40.902Z,97721.22
2022-12-08T19:31:09.893Z,97725.47
2022-12-08T19:36:35.393Z,97719.78
2022-12-08T19:42:15.510Z,97725.03
2022-12-08T19:47:38.327Z,97716.28
2022-12-08T19:53:01.105Z,97710.81
2022-12-08T19:58:22.855Z,97714.06
2022-12-08T20:03:44.593Z,97706.63
2022-12-08T20:09:07.213Z,97698.81
2022-12-08T20:14:28.958Z,97706.31
2022-12-08T20:19:50.911Z,97707.50
2022-12-08T20:25:13.291Z,97711.84
2022-12-08T20:30:38.364Z,97717.53
2022-12-08T20:36:02.837Z,97711.56
2022-12-08T20:41:24.615Z,97712.59
2022-12-08T20:46:49.617Z,97715.66
2022-12-08T20:52:11.570Z,97724.19
2022-12-08T20:57:34.052Z,97709.97
2022-12-08T21:02:56.989Z,97713.81
2022-12-08T21:08:19.886Z,97716.31
2022-12-08T21:13:43.149Z,97715.56
2022-12-08T21:19:06.178Z,97713.38
2022-12-08T21:24:33.709Z,97710.06
2022-12-08T21:29:56.512Z,97707.66
2022-12-08T21:35:18.672Z,97701.31
2022-12-08T21:40:40.620Z,97718.69
2022-12-08T21:46:02.468Z,97713.03
2022-12-08T21:51:24.617Z,97713.84
2022-12-08T21:56:48.010Z,97715.56
2022-12-08T22:02:14.681Z,97707.50
2022-12-08T22:07:41.374Z,97708.00
2022-12-08T22:13:03.296Z,97713.94
2022-12-08T22:18:25.574Z,97722.16
2022-12-08T22:23:47.584Z,97708.31
2022-12-08T22:29:09.603Z,97715.94
2022-12-08T22:34:31.472Z,97712.22
2022-12-08T22:39:53.443Z,97705.72
2022-12-08T22:45:15.308Z,97711.41
2022-12-08T22:50:37.307Z,97698.63
2022-12-08T22:55:59.142Z,97706.09
2022-12-08T23:01:29.979Z,97689.00
2022-12-08T23:06:51.866Z,97683.91
2022-12-08T23:12:14.051Z,97675.63
2022-12-08T23:17:36.021Z,97674.13
2022-12-08T23:22:57.836Z,97669.97
2022-12-08T23:28:19.521Z,97664.69
2022-12-08T23:33:41.473Z,97660.13
2022-12-08T23:39:04.672Z,97654.97
2022-12-08T23:44:26.456Z,97643.09
2022-12-08T23:49:48.301Z,97645.16
2022-12-08T23:55:11.171Z,97644.13
